Главная страница
METAR-TAF:

METAR-TAF

Аэропорты :

Инувик, Северо-Западные Территории, Канада

широта: 68-18N, долгота: 133-29W, высота над уровнем моря: 59 м

Текущие метеонаблюдения

Эта сводка был подготовлена 21 минут назад, в 09:00 UTC
Ветер 9 Узел от северо-северо-восточный с порывами до 15 Узел
Температура -21°C
Влажность 77%
Давление 993 hPa
Видимость: 6.4 км
Ледяные иглы

METAR: CYEV 120900Z 03009G15KT 4SM IC VV012 M21/M24 A2933 RMK IC8 SLP942

Время: 02:21 (09:21 UTC)

Прогноз

Эта сводка был подготовлена 2 часа и 43 минут назад, в 06:38 UTC
Прогноз действительный с 12-го 07 UTC до 12-го 19 UTC
Ветер 5 Узел от северный
Видимость: 9.7 км
Сплошная облачность на высоте 8000 фута
Ледяные иглы
временами
С 12-го 07 UTC до 12-го 19 UTC
Видимость: 1.6 км
Сплошная облачность на высоте 5000 фута
небольшой снег

TAF: CYEV 120638Z 1207/1219 36005KT 6SM IC OVC080 TEMPO 1207/1219 1SM -SN OVC050 RMK NXT FCST BY 121300Z

Метеонаблюдения и прогнозы для более 4000 аэропортов (сводки METAR и TAF).

Имеющиеся станции представлены на карте желтыми и красными точками.

Чтобы увидеть название станции, наведите на нее мышь.

Затем щелкните, чтобы увидеть метеонаблюдения и метеопрогнозы.

Управление картой: чтобы увеличить масштаб, щелкните зеленые кнопки с черным крестиком; чтобы уменьшить масштаб, щелкните зеленую кнопку с тире; для просмотра соседних карт щелкайте зеленые стрелки.


METAR-TAF: